createdAt,value
2022-10-11T00:00:19.210Z,32.77
2022-10-11T00:02:51.892Z,31.33
2022-10-11T00:05:22.026Z,30.93
2022-10-11T00:07:52.157Z,29.20
2022-10-11T00:10:23.660Z,23.53
2022-10-11T00:12:54.871Z,26.17
2022-10-11T00:15:25.465Z,25.00
2022-10-11T00:18:02.140Z,32.00
2022-10-11T00:20:34.695Z,25.53
2022-10-11T00:23:04.733Z,31.37
2022-10-11T00:25:34.771Z,26.83
2022-10-11T00:28:04.781Z,28.83
2022-10-11T00:30:35.437Z,20.97
2022-10-11T00:33:08.195Z,31.27
2022-10-11T00:35:38.279Z,25.60
2022-10-11T00:38:08.228Z,24.97
2022-10-11T00:40:38.372Z,25.13
2022-10-11T00:43:17.401Z,28.90
2022-10-11T00:46:05.526Z,25.50
2022-10-11T00:48:45.045Z,19.30
2022-10-11T00:51:23.468Z,29.23
2022-10-11T00:53:56.085Z,22.67
2022-10-11T00:56:33.366Z,21.70
2022-10-11T00:59:08.611Z,24.77
2022-10-11T01:01:39.005Z,21.53
2022-10-11T01:04:11.871Z,28.23
2022-10-11T01:06:44.029Z,36.73
2022-10-11T01:09:16.345Z,27.00
2022-10-11T01:11:47.197Z,28.20
2022-10-11T01:14:59.010Z,35.83
2022-10-11T01:17:47.761Z,26.97
2022-10-11T01:20:39.989Z,24.00
2022-10-11T01:24:04.696Z,24.87
2022-10-11T01:27:33.365Z,30.43
2022-10-11T01:30:20.662Z,25.60
2022-10-11T01:33:02.506Z,30.00
2022-10-11T01:35:43.597Z,32.40
2022-10-11T01:38:24.613Z,28.77
2022-10-11T01:41:01.078Z,28.90
2022-10-11T01:43:33.092Z,23.73
2022-10-11T01:46:08.635Z,37.27
2022-10-11T01:48:51.158Z,31.87
2022-10-11T01:51:26.246Z,43.23
2022-10-11T01:54:16.365Z,39.87
2022-10-11T01:57:17.137Z,35.73
2022-10-11T02:00:01.737Z,65.47
2022-10-11T02:03:04.922Z,31.13
2022-10-11T02:05:49.174Z,294.17
2022-10-11T02:08:28.341Z,86.87
2022-10-11T02:11:10.223Z,102.57
2022-10-11T02:13:48.989Z,258.47
2022-10-11T02:16:28.641Z,311.63
2022-10-11T02:19:06.313Z,331.47
2022-10-11T02:21:41.713Z,326.27
2022-10-11T02:24:19.332Z,79.90
2022-10-11T02:26:55.471Z,53.90
2022-10-11T02:29:30.400Z,53.03
2022-10-11T02:32:03.717Z,57.87
2022-10-11T02:34:42.274Z,39.03
2022-10-11T02:37:24.348Z,28.70
2022-10-11T02:40:01.080Z,33.60
2022-10-11T02:42:39.870Z,34.17
2022-10-11T02:45:20.112Z,49.27
2022-10-11T02:47:51.217Z,42.20
2022-10-11T02:50:26.145Z,46.40
2022-10-11T02:52:56.183Z,36.83
2022-10-11T02:55:26.246Z,43.83
2022-10-11T02:57:56.601Z,42.80
2022-10-11T03:00:26.902Z,44.70
2022-10-11T03:02:57.209Z,65.70
2022-10-11T03:05:29.842Z,49.30
2022-10-11T03:07:59.864Z,48.60
2022-10-11T03:10:29.919Z,34.37
2022-10-11T03:12:59.917Z,58.83
2022-10-11T03:15:30.051Z,51.90
2022-10-11T03:18:00.138Z,64.60
2022-10-11T03:20:32.730Z,57.37
2022-10-11T03:23:02.733Z,69.73
2022-10-11T03:25:32.783Z,64.00
2022-10-11T03:28:02.812Z,57.10
2022-10-11T03:30:32.801Z,58.53
2022-10-11T03:33:02.876Z,57.30
2022-10-11T03:35:35.652Z,69.80
2022-10-11T03:38:06.003Z,79.30
2022-10-11T03:40:36.871Z,66.70
2022-10-11T03:43:06.889Z,71.07
2022-10-11T03:45:37.209Z,58.10
2022-10-11T03:48:08.498Z,53.53
2022-10-11T03:50:41.890Z,52.87
2022-10-11T03:53:12.323Z,63.50
2022-10-11T03:55:43.775Z,57.00
2022-10-11T03:58:13.915Z,73.30
2022-10-11T04:00:43.856Z,59.07
2022-10-11T04:03:13.911Z,60.33
2022-10-11T04:05:46.497Z,66.17
2022-10-11T04:08:16.607Z,65.47
2022-10-11T04:10:46.771Z,60.10
2022-10-11T04:13:16.757Z,61.23
2022-10-11T04:15:46.827Z,67.37
2022-10-11T04:18:16.911Z,59.70
2022-10-11T04:20:49.534Z,59.93
2022-10-11T04:23:19.543Z,59.80
2022-10-11T04:25:49.571Z,71.47
2022-10-11T04:28:19.875Z,59.47
2022-10-11T04:30:50.001Z,63.43
2022-10-11T04:33:20.376Z,65.37
2022-10-11T04:35:57.178Z,64.43
2022-10-11T04:38:27.155Z,75.67
2022-10-11T04:40:57.166Z,75.20
2022-10-11T04:43:27.207Z,77.10
2022-10-11T04:45:57.180Z,87.10
2022-10-11T04:48:27.339Z,69.63
2022-10-11T04:51:00.167Z,75.90
2022-10-11T04:53:30.207Z,73.00
2022-10-11T04:56:02.680Z,74.83
2022-10-11T04:58:34.939Z,70.73
2022-10-11T05:01:04.935Z,89.60
2022-10-11T05:03:34.976Z,75.57
2022-10-11T05:06:09.072Z,80.67
2022-10-11T05:08:39.663Z,83.53
2022-10-11T05:11:15.818Z,79.73
2022-10-11T05:13:47.929Z,98.57
2022-10-11T05:16:19.593Z,88.07
2022-10-11T05:18:49.587Z,86.60
2022-10-11T05:21:25.293Z,76.67
2022-10-11T05:23:57.900Z,98.10
2022-10-11T05:26:30.154Z,83.33
2022-10-11T05:29:00.283Z,74.73
2022-10-11T05:31:30.495Z,80.93
2022-10-11T05:34:00.493Z,94.20
2022-10-11T05:36:33.114Z,111.10
2022-10-11T05:39:03.141Z,79.83
2022-10-11T05:41:33.306Z,87.80
2022-10-11T05:44:03.354Z,110.03
2022-10-11T05:46:33.373Z,97.30
2022-10-11T05:49:03.372Z,94.03
2022-10-11T05:51:35.996Z,105.87
2022-10-11T05:54:06.055Z,96.97
2022-10-11T05:56:36.067Z,120.13
2022-10-11T05:59:07.740Z,106.63
2022-10-11T06:01:37.800Z,126.23
2022-10-11T06:04:08.513Z,114.87
2022-10-11T06:06:41.115Z,127.57
2022-10-11T06:09:12.229Z,120.73
2022-10-11T06:11:42.890Z,116.97
2022-10-11T06:14:13.369Z,107.83
2022-10-11T06:16:43.606Z,115.93
2022-10-11T06:19:13.650Z,124.47
2022-10-11T06:21:46.776Z,118.03
2022-10-11T06:24:16.881Z,110.03
2022-10-11T06:26:46.865Z,101.40
2022-10-11T06:29:16.872Z,126.00
2022-10-11T06:31:47.114Z,108.23
2022-10-11T06:34:18.030Z,99.37
2022-10-11T06:36:50.555Z,110.73
2022-10-11T06:39:20.663Z,103.43
2022-10-11T06:41:50.823Z,105.20
2022-10-11T06:44:21.445Z,99.07
2022-10-11T06:46:51.494Z,103.57
2022-10-11T06:49:23.475Z,105.10
2022-10-11T06:51:56.315Z,111.00
2022-10-11T06:54:26.558Z,96.93
2022-10-11T06:56:56.625Z,101.03
2022-10-11T06:59:26.686Z,115.57
2022-10-11T07:01:56.640Z,102.67
2022-10-11T07:04:26.754Z,78.37
2022-10-11T07:06:59.371Z,90.33
2022-10-11T07:09:30.828Z,89.20
2022-10-11T07:12:00.906Z,84.50
2022-10-11T07:14:31.191Z,91.97
2022-10-11T07:17:01.246Z,93.00
2022-10-11T07:19:31.555Z,80.90
2022-10-11T07:22:04.600Z,91.57
2022-10-11T07:24:34.730Z,71.37
2022-10-11T07:27:04.748Z,92.93
2022-10-11T07:29:34.793Z,83.10
2022-10-11T07:32:04.802Z,78.97
2022-10-11T07:34:34.845Z,68.43
2022-10-11T07:37:07.422Z,76.83
2022-10-11T07:39:37.908Z,83.63
2022-10-11T07:42:09.899Z,74.23
2022-10-11T07:44:39.917Z,79.73
2022-10-11T07:47:11.390Z,73.73
2022-10-11T07:49:41.591Z,79.73
2022-10-11T07:52:14.199Z,74.17
2022-10-11T07:54:44.300Z,68.67
2022-10-11T07:57:15.103Z,60.27
2022-10-11T07:59:49.999Z,62.23
2022-10-11T08:02:20.346Z,57.77
2022-10-11T08:04:50.449Z,61.73
2022-10-11T08:07:23.110Z,55.93
2022-10-11T08:09:53.188Z,57.87
2022-10-11T08:12:23.175Z,56.57
2022-10-11T08:14:53.213Z,48.60
2022-10-11T08:17:23.318Z,44.97
2022-10-11T08:19:53.532Z,44.20
2022-10-11T08:22:26.150Z,51.80
2022-10-11T08:24:56.149Z,46.53
2022-10-11T08:27:26.434Z,45.43
2022-10-11T08:29:56.437Z,48.27
2022-10-11T08:32:26.474Z,38.57
2022-10-11T08:34:56.890Z,47.17
2022-10-11T08:37:29.659Z,40.93
2022-10-11T08:39:59.645Z,41.73
2022-10-11T08:42:41.196Z,47.47
2022-10-11T08:45:25.421Z,37.13
2022-10-11T08:48:09.847Z,45.33
2022-10-11T08:50:42.105Z,41.00
2022-10-11T08:53:26.707Z,34.87
2022-10-11T08:55:58.295Z,39.83
2022-10-11T08:58:42.685Z,44.17
2022-10-11T09:01:22.004Z,39.80
2022-10-11T09:03:53.587Z,31.33
2022-10-11T09:06:39.562Z,29.97
2022-10-11T09:09:31.730Z,37.03
2022-10-11T09:12:20.601Z,36.47
2022-10-11T09:15:18.348Z,32.90
2022-10-11T09:18:22.294Z,36.10
2022-10-11T09:21:11.811Z,31.07
2022-10-11T09:24:07.479Z,45.83
2022-10-11T09:26:54.162Z,37.67
2022-10-11T09:29:50.271Z,32.00
2022-10-11T09:32:23.820Z,34.00
2022-10-11T09:35:04.228Z,33.13
2022-10-11T09:37:45.099Z,28.43
2022-10-11T09:40:36.628Z,30.00
2022-10-11T09:43:11.145Z,35.50
2022-10-11T09:45:49.304Z,34.77
2022-10-11T09:48:25.614Z,35.10
2022-10-11T09:51:01.166Z,38.77
2022-10-11T09:53:58.496Z,33.27
2022-10-11T09:56:31.720Z,35.50
2022-10-11T09:59:29.479Z,35.30
2022-10-11T10:02:25.009Z,33.47
2022-10-11T10:05:04.295Z,38.93
2022-10-11T10:07:37.874Z,43.53
2022-10-11T10:10:34.045Z,44.73
2022-10-11T10:13:07.348Z,41.83
2022-10-11T10:15:47.809Z,47.43
2022-10-11T10:18:26.998Z,37.23
2022-10-11T10:21:00.230Z,38.37
2022-10-11T10:23:33.375Z,35.17
2022-10-11T10:26:17.249Z,35.60
2022-10-11T10:29:18.642Z,38.40
2022-10-11T10:32:14.994Z,35.90
2022-10-11T10:35:03.092Z,40.30
2022-10-11T10:37:41.607Z,31.43
2022-10-11T10:40:18.786Z,30.20
2022-10-11T10:42:48.947Z,30.30
2022-10-11T10:45:22.101Z,33.10
2022-10-11T10:48:17.709Z,30.50
2022-10-11T10:50:58.647Z,33.70
2022-10-11T10:53:37.023Z,38.47
2022-10-11T10:56:15.099Z,37.33
2022-10-11T10:59:14.307Z,35.27
2022-10-11T11:02:06.715Z,32.30
2022-10-11T11:05:01.144Z,40.33
2022-10-11T11:07:39.595Z,27.17
2022-10-11T11:10:18.230Z,28.67
2022-10-11T11:12:58.237Z,30.30
2022-10-11T11:15:38.557Z,32.07
2022-10-11T11:18:29.959Z,25.00
2022-10-11T11:21:29.459Z,28.57
2022-10-11T11:24:15.828Z,27.27
2022-10-11T11:26:55.267Z,37.90
2022-10-11T11:29:45.971Z,29.70
2022-10-11T11:32:32.667Z,28.53
2022-10-11T11:35:06.887Z,28.83
2022-10-11T11:37:44.141Z,27.23
2022-10-11T11:40:21.316Z,27.53
2022-10-11T11:42:56.680Z,22.47
2022-10-11T11:45:33.812Z,28.17
2022-10-11T11:48:09.383Z,19.17
2022-10-11T11:50:45.115Z,21.30
2022-10-11T11:53:27.459Z,25.83
2022-10-11T11:56:05.808Z,26.33
2022-10-11T11:58:48.007Z,24.03
2022-10-11T12:01:33.419Z,30.83
2022-10-11T12:04:10.054Z,23.90
2022-10-11T12:07:04.095Z,31.73
2022-10-11T12:09:37.216Z,21.57
2022-10-11T12:12:10.148Z,28.03
2022-10-11T12:14:43.347Z,24.63
2022-10-11T12:17:24.453Z,25.93
2022-10-11T12:20:19.116Z,35.10
2022-10-11T12:23:00.946Z,24.47
2022-10-11T12:25:42.850Z,25.13
2022-10-11T12:29:05.344Z,24.50
2022-10-11T12:31:42.409Z,26.63
2022-10-11T12:34:38.107Z,24.97
2022-10-11T12:37:53.992Z,21.70
2022-10-11T12:40:45.983Z,28.17
2022-10-11T12:43:39.023Z,25.67
2022-10-11T12:46:42.944Z,22.23
2022-10-11T12:49:38.936Z,20.13
2022-10-11T12:52:31.930Z,20.93
2022-10-11T12:55:38.141Z,20.00
2022-10-11T12:58:38.267Z,19.40
2022-10-11T13:01:37.657Z,32.23
2022-10-11T13:04:12.791Z,20.90
2022-10-11T13:06:53.528Z,23.50
2022-10-11T13:09:33.817Z,24.13
2022-10-11T13:12:10.232Z,18.70
2022-10-11T13:14:49.526Z,21.27
2022-10-11T13:17:24.054Z,20.50
2022-10-11T13:20:04.100Z,20.90
2022-10-11T13:22:40.983Z,21.90
2022-10-11T13:25:17.898Z,20.53
2022-10-11T13:27:48.676Z,23.67
2022-10-11T13:30:27.720Z,22.23
2022-10-11T13:32:58.214Z,22.13
2022-10-11T13:35:36.418Z,20.60
2022-10-11T13:38:11.085Z,21.67
2022-10-11T13:40:41.645Z,22.87
2022-10-11T13:43:11.989Z,23.50
2022-10-11T13:45:45.135Z,23.23
2022-10-11T13:48:19.091Z,23.47
2022-10-11T13:51:08.174Z,20.10
2022-10-11T13:53:38.590Z,24.37
2022-10-11T13:56:12.558Z,27.13
2022-10-11T13:58:50.559Z,25.80
2022-10-11T14:01:27.982Z,18.43
2022-10-11T14:04:03.547Z,20.77
2022-10-11T14:06:49.686Z,18.10
2022-10-11T14:09:25.876Z,21.20
2022-10-11T14:11:56.771Z,27.93
2022-10-11T14:14:46.213Z,20.37
2022-10-11T14:17:22.720Z,26.00
2022-10-11T14:20:17.334Z,19.90
2022-10-11T14:22:47.516Z,23.10
2022-10-11T14:25:17.747Z,18.00
2022-10-11T14:27:47.972Z,18.90
2022-10-11T14:30:25.715Z,18.40
2022-10-11T14:33:03.440Z,16.97
2022-10-11T14:35:37.458Z,20.83
2022-10-11T14:38:07.404Z,23.73
2022-10-11T14:40:37.548Z,18.10
2022-10-11T14:43:08.015Z,23.93
2022-10-11T14:45:38.131Z,18.70
2022-10-11T14:48:10.864Z,22.57
2022-10-11T14:50:48.437Z,16.83
2022-10-11T14:53:18.717Z,17.07
2022-10-11T14:55:49.082Z,16.97
2022-10-11T14:58:20.981Z,21.70
2022-10-11T15:00:51.019Z,21.10
2022-10-11T15:03:23.620Z,20.00
2022-10-11T15:05:53.711Z,21.30
2022-10-11T15:08:23.713Z,16.80
2022-10-11T15:10:53.963Z,22.73
2022-10-11T15:13:27.764Z,21.07
2022-10-11T15:15:57.835Z,19.80
2022-10-11T15:18:30.472Z,19.80
2022-10-11T15:21:00.661Z,20.93
2022-10-11T15:23:30.778Z,21.47
2022-10-11T15:26:00.886Z,24.67
2022-10-11T15:28:34.184Z,18.23
2022-10-11T15:31:04.287Z,20.50
2022-10-11T15:33:36.892Z,21.90
2022-10-11T15:36:08.727Z,21.37
2022-10-11T15:38:39.342Z,22.50
2022-10-11T15:41:09.938Z,20.03
2022-10-11T15:43:39.875Z,26.80
2022-10-11T15:46:10.065Z,19.93
2022-10-11T15:48:42.763Z,21.37
2022-10-11T15:51:13.090Z,19.13
2022-10-11T15:53:43.278Z,19.30
2022-10-11T15:56:19.456Z,21.13
2022-10-11T15:58:49.585Z,25.00
2022-10-11T16:01:22.716Z,25.83
2022-10-11T16:03:55.490Z,19.27
2022-10-11T16:06:26.273Z,23.03
2022-10-11T16:08:56.293Z,24.37
2022-10-11T16:11:26.247Z,23.13
2022-10-11T16:13:56.194Z,27.83
2022-10-11T16:16:26.438Z,32.47
2022-10-11T16:18:59.004Z,28.20
2022-10-11T16:21:29.161Z,22.27
2022-10-11T16:23:59.132Z,21.90
2022-10-11T16:26:29.138Z,25.67
2022-10-11T16:28:59.255Z,23.30
2022-10-11T16:31:29.343Z,20.63
2022-10-11T16:34:02.018Z,25.50
2022-10-11T16:36:36.603Z,17.47
2022-10-11T16:39:11.731Z,24.13
2022-10-11T16:41:42.145Z,21.60
2022-10-11T16:44:16.392Z,21.70
2022-10-11T16:46:48.512Z,28.00
2022-10-11T16:49:24.599Z,21.13
2022-10-11T16:51:59.056Z,21.93
2022-10-11T16:54:30.356Z,31.50
2022-10-11T16:57:01.124Z,29.30
2022-10-11T16:59:31.192Z,21.30
2022-10-11T17:02:01.313Z,19.43
2022-10-11T17:04:34.074Z,31.13
2022-10-11T17:07:04.433Z,25.57
2022-10-11T17:09:34.428Z,20.47
2022-10-11T17:12:04.468Z,26.27
2022-10-11T17:14:34.473Z,23.20
2022-10-11T17:17:05.159Z,23.30
2022-10-11T17:19:42.601Z,24.10
2022-10-11T17:22:16.613Z,21.70
2022-10-11T17:24:47.528Z,20.87
2022-10-11T17:27:17.729Z,22.00
2022-10-11T17:29:47.729Z,23.70
2022-10-11T17:32:17.743Z,20.00
2022-10-11T17:34:50.329Z,30.83
2022-10-11T17:37:20.830Z,20.07
2022-10-11T17:39:51.267Z,32.37
2022-10-11T17:42:21.433Z,21.40
2022-10-11T17:44:51.776Z,21.53
2022-10-11T17:47:21.812Z,34.63
2022-10-11T17:49:54.415Z,28.87
2022-10-11T17:52:24.505Z,19.50
2022-10-11T17:54:54.520Z,23.43
2022-10-11T17:57:24.662Z,31.13
2022-10-11T17:59:54.687Z,21.10
2022-10-11T18:02:24.675Z,17.70
2022-10-11T18:04:57.299Z,19.27
2022-10-11T18:07:27.371Z,33.00
2022-10-11T18:09:57.389Z,25.43
2022-10-11T18:12:28.511Z,21.30
2022-10-11T18:14:58.584Z,20.13
2022-10-11T18:17:28.775Z,18.77
2022-10-11T18:20:01.476Z,28.13
2022-10-11T18:22:31.585Z,24.50
2022-10-11T18:25:01.606Z,22.30
2022-10-11T18:27:31.955Z,34.60
2022-10-11T18:30:01.966Z,26.70
2022-10-11T18:32:32.011Z,26.87
2022-10-11T18:35:04.630Z,29.13
2022-10-11T18:37:34.657Z,30.50
2022-10-11T18:40:04.668Z,31.33
2022-10-11T18:42:34.673Z,22.77
2022-10-11T18:45:04.700Z,29.37
2022-10-11T18:47:34.839Z,31.97
2022-10-11T18:50:09.564Z,29.10
2022-10-11T18:52:43.776Z,30.33
2022-10-11T18:55:14.580Z,29.77
2022-10-11T18:57:45.029Z,31.70
2022-10-11T19:00:39.526Z,32.17
2022-10-11T19:03:07.458Z,33.33
2022-10-11T19:05:41.709Z,42.37
2022-10-11T19:08:11.753Z,34.67
2022-10-11T19:10:41.805Z,32.87
2022-10-11T19:13:11.799Z,41.13
2022-10-11T19:15:41.790Z,42.67
2022-10-11T19:18:13.470Z,25.27
2022-10-11T19:20:47.618Z,35.80
2022-10-11T19:23:17.595Z,33.50
2022-10-11T19:25:47.587Z,33.70
2022-10-11T19:28:18.339Z,44.80
2022-10-11T19:30:48.424Z,34.03
2022-10-11T19:33:18.432Z,31.13
2022-10-11T19:35:59.982Z,34.07
2022-10-11T19:38:29.997Z,30.07
2022-10-11T19:41:00.091Z,29.33
2022-10-11T19:43:30.586Z,32.87
2022-10-11T19:46:03.618Z,27.40
2022-10-11T19:48:34.370Z,34.07
2022-10-11T19:51:10.331Z,37.20
2022-10-11T19:53:40.546Z,30.20
2022-10-11T19:56:14.546Z,29.60
2022-10-11T19:58:45.730Z,35.23
2022-10-11T20:01:18.893Z,33.70
2022-10-11T20:03:52.726Z,33.43
2022-10-11T20:06:27.866Z,35.27
2022-10-11T20:09:23.875Z,31.53
2022-10-11T20:11:49.142Z,33.87
2022-10-11T20:14:19.165Z,37.37
2022-10-11T20:16:51.960Z,30.83
2022-10-11T20:19:27.701Z,37.83
2022-10-11T20:22:02.896Z,38.97
2022-10-11T20:24:34.462Z,37.73
2022-10-11T20:27:09.752Z,44.13
2022-10-11T20:29:39.717Z,33.33
2022-10-11T20:32:09.763Z,44.47
2022-10-11T20:34:39.920Z,38.20
2022-10-11T20:37:12.755Z,29.27
2022-10-11T20:39:42.777Z,31.27
2022-10-11T20:42:13.032Z,35.60
2022-10-11T20:44:43.745Z,32.83
2022-10-11T20:47:13.802Z,33.37
2022-10-11T20:49:43.839Z,28.27
2022-10-11T20:52:16.848Z,27.50
2022-10-11T20:54:46.861Z,23.53
2022-10-11T20:57:16.892Z,34.67
2022-10-11T20:59:47.346Z,30.17
2022-10-11T21:02:19.133Z,31.17
2022-10-11T21:04:49.274Z,35.33
2022-10-11T21:07:22.091Z,26.90
2022-10-11T21:09:52.148Z,29.97
2022-10-11T21:12:22.177Z,44.10
2022-10-11T21:14:52.186Z,32.60
2022-10-11T21:17:22.322Z,27.83
2022-10-11T21:19:52.336Z,33.67
2022-10-11T21:22:24.932Z,26.43
2022-10-11T21:24:55.046Z,25.27
2022-10-11T21:27:25.098Z,27.50
2022-10-11T21:29:55.281Z,35.27
2022-10-11T21:32:25.465Z,34.10
2022-10-11T21:34:55.504Z,34.87
2022-10-11T21:37:28.090Z,25.43
2022-10-11T21:39:58.094Z,28.10
2022-10-11T21:42:29.644Z,34.77
2022-10-11T21:44:59.809Z,32.50
2022-10-11T21:47:31.416Z,23.37
2022-10-11T21:50:01.558Z,29.00
2022-10-11T21:52:34.425Z,28.10
2022-10-11T21:55:04.657Z,25.33
2022-10-11T21:57:34.659Z,31.80
2022-10-11T22:00:04.770Z,31.03
2022-10-11T22:02:43.365Z,31.50
2022-10-11T22:05:13.593Z,26.73
2022-10-11T22:07:46.218Z,29.53
2022-10-11T22:10:16.278Z,30.20
2022-10-11T22:12:47.214Z,35.57
2022-10-11T22:15:17.397Z,31.47
2022-10-11T22:17:47.399Z,41.30
2022-10-11T22:20:17.538Z,31.77
2022-10-11T22:22:50.106Z,29.10
2022-10-11T22:25:20.217Z,34.43
2022-10-11T22:27:50.326Z,33.43
2022-10-11T22:30:20.458Z,36.90
2022-10-11T22:32:50.520Z,40.20
2022-10-11T22:35:20.622Z,27.20
2022-10-11T22:37:53.335Z,38.80
2022-10-11T22:40:23.833Z,33.60
2022-10-11T22:42:53.831Z,36.90
2022-10-11T22:45:23.815Z,32.70
2022-10-11T22:47:53.804Z,36.67
2022-10-11T22:50:23.819Z,28.10
2022-10-11T22:52:56.419Z,31.53
2022-10-11T22:55:26.586Z,26.30
2022-10-11T22:57:57.223Z,30.27
2022-10-11T23:00:27.190Z,29.47
2022-10-11T23:02:57.262Z,27.93
2022-10-11T23:05:27.574Z,25.53
2022-10-11T23:08:00.179Z,27.47
2022-10-11T23:10:31.099Z,30.97
2022-10-11T23:13:01.082Z,28.93
2022-10-11T23:15:31.098Z,30.90
2022-10-11T23:18:01.113Z,30.07
2022-10-11T23:20:31.094Z,28.83
2022-10-11T23:23:03.695Z,29.50
2022-10-11T23:25:33.710Z,33.37
2022-10-11T23:28:04.083Z,35.80
2022-10-11T23:30:34.174Z,34.50
2022-10-11T23:33:04.222Z,36.87
2022-10-11T23:35:34.229Z,33.50
2022-10-11T23:38:06.826Z,33.67
2022-10-11T23:40:36.847Z,34.40
2022-10-11T23:43:06.829Z,30.90
2022-10-11T23:45:36.894Z,31.90
2022-10-11T23:48:07.583Z,30.30
2022-10-11T23:50:37.572Z,29.00
2022-10-11T23:53:10.272Z,26.77
2022-10-11T23:55:41.005Z,31.20
2022-10-11T23:58:11.915Z,40.43
